createdAt,value
2023-03-23T15:57:52.115Z,6.00
2023-03-23T16:07:55.490Z,5.63
2023-03-23T16:18:00.797Z,6.53
2023-03-23T16:28:04.659Z,8.40
2023-03-23T16:38:08.960Z,5.28
2023-03-23T16:48:13.798Z,4.28
2023-03-23T16:58:17.720Z,3.92
2023-03-23T17:08:24.470Z,2.83
2023-03-23T17:18:28.396Z,2.85
2023-03-23T17:28:31.774Z,2.65
2023-03-23T17:38:33.746Z,3.53
2023-03-23T17:48:38.488Z,3.90
2023-03-23T17:58:40.760Z,4.80
2023-03-23T18:08:46.986Z,4.93
2023-03-23T18:18:49.096Z,3.80
2023-03-23T18:28:52.936Z,4.05
2023-03-23T18:38:56.922Z,3.90
2023-03-23T18:49:00.240Z,3.80
2023-03-23T18:59:02.158Z,6.70
2023-03-23T19:09:05.537Z,2.60
2023-03-23T19:19:07.792Z,2.17
2023-03-23T19:39:19.234Z,2.43
2023-03-23T19:49:22.553Z,5.53
2023-03-23T19:59:25.238Z,2.30
2023-03-23T20:09:31.041Z,2.60
2023-03-23T20:19:33.295Z,2.08
2023-03-23T20:29:36.660Z,3.67
2023-03-23T20:39:38.612Z,1.80
2023-03-23T20:49:53.016Z,1.90
2023-03-23T21:00:05.644Z,1.63
2023-03-23T21:10:09.173Z,2.90
2023-03-23T21:20:14.414Z,2.42
2023-03-23T21:30:18.099Z,2.70
2023-03-23T21:40:20.922Z,1.95
2023-03-23T21:50:24.494Z,2.25
2023-03-23T22:00:28.395Z,1.50
2023-03-23T22:10:31.779Z,1.48
2023-03-23T22:20:33.851Z,2.22
2023-03-23T22:30:37.631Z,2.00
2023-03-23T22:40:39.635Z,1.88
2023-03-23T22:50:47.294Z,1.77
2023-03-23T23:00:55.860Z,2.35
2023-03-23T23:11:04.538Z,3.05
2023-03-23T23:21:08.474Z,4.30
2023-03-23T23:31:22.799Z,2.03
2023-03-23T23:41:26.298Z,2.15
2023-03-23T23:51:29.841Z,1.73
